createdAt,value
2022-08-25T00:00:34.409Z,70.37
2022-08-25T00:05:36.558Z,70.30
2022-08-25T00:10:39.612Z,70.16
2022-08-25T00:15:41.641Z,69.72
2022-08-25T00:20:48.964Z,69.51
2022-08-25T00:25:51.634Z,69.26
2022-08-25T00:30:53.648Z,69.60
2022-08-25T00:35:56.627Z,69.54
2022-08-25T00:41:08.048Z,70.17
2022-08-25T00:46:11.843Z,70.14
2022-08-25T00:51:19.420Z,70.25
2022-08-25T00:56:21.577Z,70.94
2022-08-25T01:01:24.562Z,71.57
2022-08-25T01:06:28.733Z,71.95
2022-08-25T01:11:30.742Z,71.97
2022-08-25T01:16:37.789Z,71.32
2022-08-25T01:21:44.973Z,71.02
2022-08-25T01:26:47.699Z,71.13
2022-08-25T01:31:53.133Z,70.93
2022-08-25T01:36:56.632Z,70.36
2022-08-25T01:42:09.322Z,70.65
2022-08-25T01:47:12.706Z,70.68
2022-08-25T01:52:25.905Z,71.17
2022-08-25T01:57:30.805Z,71.33
2022-08-25T02:02:32.957Z,71.13
2022-08-25T02:07:36.154Z,70.76
2022-08-25T02:12:38.340Z,71.33
2022-08-25T02:17:40.547Z,71.83
2022-08-25T02:22:43.462Z,72.03
2022-08-25T02:27:53.292Z,72.17
2022-08-25T02:32:55.457Z,72.03
2022-08-25T02:37:57.407Z,72.62
2022-08-25T02:42:59.357Z,72.24
2022-08-25T02:48:01.594Z,72.69
2022-08-25T02:53:03.971Z,73.09
2022-08-25T02:58:06.464Z,72.01
2022-08-25T03:03:08.589Z,71.88
2022-08-25T03:08:11.227Z,71.93
2022-08-25T03:13:13.312Z,71.83
2022-08-25T03:18:15.724Z,72.17
2022-08-25T03:23:18.028Z,72.03
2022-08-25T03:28:20.687Z,72.05
2022-08-25T03:33:31.368Z,71.80
2022-08-25T03:38:33.551Z,72.35
2022-08-25T03:43:35.605Z,72.54
2022-08-25T03:48:37.619Z,72.61
2022-08-25T03:53:39.692Z,72.49
2022-08-25T03:58:41.780Z,71.79
2022-08-25T04:03:43.957Z,72.01
2022-08-25T04:08:46.349Z,71.91
2022-08-25T04:13:49.056Z,72.47
2022-08-25T04:18:52.547Z,72.32
2022-08-25T04:23:56.020Z,72.17
2022-08-25T04:29:00.241Z,72.50
2022-08-25T04:34:04.157Z,71.99
2022-08-25T04:39:17.532Z,71.81
2022-08-25T04:44:19.512Z,72.08
2022-08-25T04:49:21.571Z,72.43
2022-08-25T04:54:23.676Z,72.58
2022-08-25T04:59:29.379Z,73.04
2022-08-25T05:04:36.915Z,73.03
2022-08-25T05:09:39.002Z,73.13
2022-08-25T05:14:41.086Z,73.58
2022-08-25T05:19:43.172Z,72.98
2022-08-25T05:24:45.141Z,73.41
2022-08-25T05:29:47.161Z,73.33
2022-08-25T05:34:49.190Z,73.00
2022-08-25T05:39:51.279Z,72.74
2022-08-25T05:44:53.210Z,72.76
2022-08-25T05:49:55.203Z,72.13
2022-08-25T05:54:57.977Z,72.28
2022-08-25T06:00:00.023Z,72.28
2022-08-25T06:05:02.245Z,72.43
2022-08-25T06:10:06.676Z,73.01
2022-08-25T06:15:09.351Z,73.21
2022-08-25T06:20:25.391Z,73.70
2022-08-25T06:25:28.197Z,74.44
2022-08-25T06:30:30.217Z,75.46
2022-08-25T06:35:32.361Z,76.32
2022-08-25T06:40:37.946Z,76.36
2022-08-25T06:45:40.045Z,75.88
2022-08-25T06:50:42.488Z,76.49
2022-08-25T06:56:06.630Z,76.46
2022-08-25T07:01:33.345Z,76.29
2022-08-25T07:06:55.132Z,76.32
2022-08-25T07:12:17.148Z,76.14
2022-08-25T07:17:39.181Z,75.83
2022-08-25T07:23:02.235Z,76.37
2022-08-25T07:28:25.352Z,77.10
2022-08-25T07:33:34.198Z,77.24
2022-08-25T07:38:36.251Z,76.76
2022-08-25T07:43:39.541Z,76.66
2022-08-25T07:48:42.093Z,74.98
2022-08-25T07:53:47.026Z,76.05
2022-08-25T07:58:49.053Z,75.04
2022-08-25T08:03:52.307Z,72.38
2022-08-25T08:08:57.735Z,71.36
2022-08-25T08:14:03.964Z,71.43
2022-08-25T08:19:06.230Z,72.72
2022-08-25T08:24:24.839Z,70.89
2022-08-25T08:29:30.738Z,73.35
2022-08-25T08:34:34.164Z,72.86
2022-08-25T08:39:37.492Z,71.30
2022-08-25T08:44:45.510Z,71.67
2022-08-25T08:50:11.009Z,71.68
2022-08-25T08:55:27.979Z,71.67
2022-08-25T09:00:33.285Z,72.29
2022-08-25T09:06:00.407Z,70.84
2022-08-25T09:11:16.565Z,71.28
2022-08-25T09:16:56.231Z,70.03
2022-08-25T09:22:34.971Z,72.57
2022-08-25T09:27:33.121Z,72.70
2022-08-25T09:32:48.721Z,73.26
2022-08-25T09:38:00.105Z,73.50
2022-08-25T09:43:05.964Z,73.29
2022-08-25T09:48:42.111Z,73.86
2022-08-25T09:54:16.507Z,74.42
2022-08-25T09:59:35.260Z,74.51
2022-08-25T10:04:40.455Z,75.15
2022-08-25T10:09:43.811Z,75.21
2022-08-25T10:14:48.442Z,73.76
2022-08-25T10:19:56.342Z,72.36
2022-08-25T10:25:00.480Z,73.21
2022-08-25T10:30:33.883Z,72.42
2022-08-25T10:36:03.743Z,73.22
2022-08-25T10:41:14.785Z,72.92
2022-08-25T10:46:31.293Z,72.44
2022-08-25T10:51:40.307Z,72.94
2022-08-25T10:57:08.137Z,73.13
2022-08-25T11:02:41.572Z,73.24
2022-08-25T11:07:50.287Z,73.78
2022-08-25T11:12:57.699Z,73.08
2022-08-25T11:18:14.398Z,74.09
2022-08-25T11:23:32.543Z,73.77
2022-08-25T11:28:59.176Z,73.04
2022-08-25T11:34:01.233Z,73.60
2022-08-25T11:39:08.107Z,73.58
2022-08-25T11:44:15.866Z,73.57
2022-08-25T11:49:48.077Z,73.98
2022-08-25T11:54:50.181Z,74.57
2022-08-25T11:59:57.683Z,74.48
2022-08-25T12:04:59.725Z,74.99
2022-08-25T12:10:05.960Z,74.52
2022-08-25T12:15:27.581Z,74.24
2022-08-25T12:20:57.771Z,74.76
2022-08-25T12:26:04.825Z,74.84
2022-08-25T12:31:49.644Z,74.67
2022-08-25T12:37:02.260Z,74.33
2022-08-25T12:42:26.197Z,74.20
2022-08-25T12:47:32.486Z,74.36
2022-08-25T12:52:38.455Z,73.39
2022-08-25T12:57:50.920Z,73.00
2022-08-25T13:03:10.080Z,73.11
2022-08-25T13:08:46.778Z,73.03
2022-08-25T13:13:57.669Z,72.75
2022-08-25T13:19:05.697Z,72.34
2022-08-25T13:24:26.499Z,72.24
2022-08-25T13:29:36.884Z,72.04
2022-08-25T13:34:43.813Z,71.80
2022-08-25T13:39:56.709Z,71.91
2022-08-25T13:45:00.789Z,71.24
2022-08-25T13:50:31.704Z,71.56
2022-08-25T13:55:51.611Z,71.74
2022-08-25T14:01:47.624Z,71.60
2022-08-25T14:07:14.050Z,71.84
2022-08-25T14:12:33.271Z,72.34
2022-08-25T14:17:40.117Z,72.29
2022-08-25T14:22:42.663Z,72.39
2022-08-25T14:28:06.690Z,72.44
2022-08-25T14:33:09.050Z,72.88
2022-08-25T14:38:12.181Z,72.62
2022-08-25T14:43:15.012Z,72.41
2022-08-25T14:48:40.988Z,72.66
2022-08-25T14:53:44.392Z,72.76
2022-08-25T14:58:50.796Z,70.40
2022-08-25T15:03:58.056Z,69.67
2022-08-25T15:09:11.716Z,69.47
2022-08-25T15:14:15.902Z,69.23
2022-08-25T15:19:23.636Z,69.21
2022-08-25T15:24:27.164Z,69.10
2022-08-25T15:29:31.004Z,68.55
2022-08-25T15:34:33.408Z,68.03
2022-08-25T15:39:37.129Z,67.56
2022-08-25T15:44:40.222Z,68.59
2022-08-25T15:49:43.560Z,68.63
2022-08-25T15:54:46.354Z,68.66
2022-08-25T15:59:49.513Z,68.58
2022-08-25T16:04:53.068Z,67.30
2022-08-25T16:09:59.548Z,66.81
2022-08-25T16:15:02.184Z,66.29
2022-08-25T16:20:04.707Z,64.67
2022-08-25T16:25:08.852Z,63.06
2022-08-25T16:30:16.763Z,63.97
2022-08-25T16:35:19.935Z,64.19
2022-08-25T16:40:26.444Z,62.44
2022-08-25T16:45:28.679Z,62.48
2022-08-25T16:50:34.624Z,62.03
2022-08-25T16:55:39.242Z,62.17
2022-08-25T17:00:44.786Z,62.31
2022-08-25T17:05:46.959Z,62.11
2022-08-25T17:10:48.967Z,62.67
2022-08-25T17:15:52.289Z,62.45
2022-08-25T17:21:09.824Z,63.01
2022-08-25T17:26:18.321Z,63.22
2022-08-25T17:31:21.776Z,64.73
2022-08-25T17:36:26.987Z,65.29
2022-08-25T17:41:30.345Z,65.76
2022-08-25T17:46:33.185Z,65.79
2022-08-25T17:51:35.376Z,65.97
2022-08-25T17:56:37.387Z,65.63
2022-08-25T18:01:40.522Z,65.39
2022-08-25T18:06:43.156Z,65.29
2022-08-25T18:11:45.667Z,65.39
2022-08-25T18:16:47.822Z,64.41
2022-08-25T18:21:50.084Z,64.01
2022-08-25T18:26:54.520Z,64.17
2022-08-25T18:32:00.273Z,63.31
2022-08-25T18:37:24.228Z,64.06
2022-08-25T18:42:28.836Z,62.91
2022-08-25T18:47:31.066Z,62.22
2022-08-25T18:52:33.124Z,62.88
2022-08-25T18:57:38.814Z,63.18
2022-08-25T19:02:48.031Z,62.88
2022-08-25T19:07:52.233Z,63.13
2022-08-25T19:12:54.920Z,63.32
2022-08-25T19:17:59.296Z,63.22
2022-08-25T19:23:02.227Z,63.38
2022-08-25T19:28:08.335Z,63.54
2022-08-25T19:33:14.168Z,63.80
2022-08-25T19:38:37.613Z,63.57
2022-08-25T19:43:40.101Z,64.01
2022-08-25T19:48:52.691Z,64.53
2022-08-25T19:53:57.132Z,64.46
2022-08-25T19:59:00.100Z,64.33
2022-08-25T20:04:03.629Z,64.47
2022-08-25T20:09:06.315Z,64.42
2022-08-25T20:14:12.160Z,65.06
2022-08-25T20:19:15.872Z,64.84
2022-08-25T20:24:36.701Z,64.95
2022-08-25T20:29:39.092Z,64.92
2022-08-25T20:34:42.022Z,65.42
2022-08-25T20:39:44.664Z,66.13
2022-08-25T20:44:47.236Z,66.98
2022-08-25T20:49:50.300Z,67.92
2022-08-25T20:54:52.624Z,66.15
2022-08-25T20:59:55.647Z,65.87
2022-08-25T21:04:57.780Z,65.14
2022-08-25T21:10:00.570Z,64.63
2022-08-25T21:15:04.417Z,64.37
2022-08-25T21:20:09.731Z,64.24
2022-08-25T21:25:13.480Z,64.17
2022-08-25T21:30:15.595Z,64.75
2022-08-25T21:35:17.824Z,64.64
2022-08-25T21:40:20.234Z,64.92
2022-08-25T21:45:22.379Z,64.71
2022-08-25T21:50:24.721Z,65.18
2022-08-25T21:55:27.166Z,65.19
2022-08-25T22:00:29.316Z,65.11
2022-08-25T22:05:31.392Z,65.15
2022-08-25T22:10:33.488Z,65.54
2022-08-25T22:15:35.549Z,65.97
2022-08-25T22:20:39.216Z,66.46
2022-08-25T22:25:43.681Z,67.34
2022-08-25T22:30:46.473Z,66.67
2022-08-25T22:35:49.850Z,67.39
2022-08-25T22:40:55.459Z,68.27
2022-08-25T22:46:05.251Z,68.54
2022-08-25T22:51:10.033Z,69.02
2022-08-25T22:56:13.674Z,69.27
2022-08-25T23:01:20.471Z,69.24
2022-08-25T23:06:25.106Z,68.92
2022-08-25T23:11:29.025Z,68.68
2022-08-25T23:16:32.459Z,67.63
2022-08-25T23:21:53.686Z,67.86
2022-08-25T23:27:00.921Z,68.69
2022-08-25T23:32:04.510Z,69.16
2022-08-25T23:37:08.020Z,69.37
2022-08-25T23:42:10.018Z,69.76
2022-08-25T23:47:12.304Z,70.67
2022-08-25T23:52:17.541Z,70.93
2022-08-25T23:57:19.838Z,70.79
